sensor_id;sensor_type;location;lat;lon;timestamp;P1;durP1;ratioP1;P2;durP2;ratioP2
2638;SDS011;1329;51.384;7.122;2023-02-28T00:00:29;8.43;;;6.80;;
2638;SDS011;1329;51.384;7.122;2023-02-28T00:02:57;7.43;;;6.60;;
2638;SDS011;1329;51.384;7.122;2023-02-28T00:05:37;7.77;;;6.57;;
2638;SDS011;1329;51.384;7.122;2023-02-28T00:08:09;8.37;;;6.60;;
2638;SDS011;1329;51.384;7.122;2023-02-28T00:10:36;7.13;;;6.43;;
2638;SDS011;1329;51.384;7.122;2023-02-28T00:13:11;7.50;;;6.73;;
2638;SDS011;1329;51.384;7.122;2023-02-28T00:15:41;7.20;;;6.43;;
2638;SDS011;1329;51.384;7.122;2023-02-28T00:18:28;6.67;;;6.03;;
2638;SDS011;1329;51.384;7.122;2023-02-28T00:21:03;8.70;;;7.17;;
2638;SDS011;1329;51.384;7.122;2023-02-28T00:23:34;6.77;;;6.07;;
2638;SDS011;1329;51.384;7.122;2023-02-28T00:26:02;7.47;;;6.77;;
2638;SDS011;1329;51.384;7.122;2023-02-28T00:28:35;6.77;;;6.13;;
2638;SDS011;1329;51.384;7.122;2023-02-28T00:31:12;6.20;;;5.60;;
2638;SDS011;1329;51.384;7.122;2023-02-28T00:33:42;7.37;;;6.63;;
2638;SDS011;1329;51.384;7.122;2023-02-28T00:36:13;7.77;;;6.73;;
2638;SDS011;1329;51.384;7.122;2023-02-28T00:38:44;6.40;;;5.77;;
2638;SDS011;1329;51.384;7.122;2023-02-28T00:41:20;7.30;;;6.60;;
2638;SDS011;1329;51.384;7.122;2023-02-28T00:43:49;6.67;;;5.90;;
2638;SDS011;1329;51.384;7.122;2023-02-28T00:46:16;6.97;;;6.10;;
2638;SDS011;1329;51.384;7.122;2023-02-28T00:48:44;6.80;;;5.80;;
2638;SDS011;1329;51.384;7.122;2023-02-28T00:51:20;6.93;;;6.00;;
2638;SDS011;1329;51.384;7.122;2023-02-28T00:53:48;7.73;;;5.67;;
2638;SDS011;1329;51.384;7.122;2023-02-28T00:56:20;7.43;;;6.07;;
2638;SDS011;1329;51.384;7.122;2023-02-28T00:58:50;7.47;;;6.17;;
2638;SDS011;1329;51.384;7.122;2023-02-28T01:01:19;6.13;;;5.53;;
2638;SDS011;1329;51.384;7.122;2023-02-28T01:03:48;6.43;;;5.73;;
2638;SDS011;1329;51.384;7.122;2023-02-28T01:06:15;6.13;;;5.47;;
2638;SDS011;1329;51.384;7.122;2023-02-28T01:08:49;9.40;;;5.53;;
2638;SDS011;1329;51.384;7.122;2023-02-28T01:11:17;6.73;;;6.03;;
2638;SDS011;1329;51.384;7.122;2023-02-28T01:13:51;6.17;;;5.57;;
2638;SDS011;1329;51.384;7.122;2023-02-28T01:16:21;6.50;;;5.40;;
2638;SDS011;1329;51.384;7.122;2023-02-28T01:18:50;6.30;;;5.70;;
2638;SDS011;1329;51.384;7.122;2023-02-28T01:21:18;7.30;;;5.97;;
2638;SDS011;1329;51.384;7.122;2023-02-28T01:23:47;7.40;;;6.13;;
2638;SDS011;1329;51.384;7.122;2023-02-28T01:26:19;5.50;;;4.90;;
2638;SDS011;1329;51.384;7.122;2023-02-28T01:28:59;8.10;;;6.00;;
2638;SDS011;1329;51.384;7.122;2023-02-28T01:31:33;6.70;;;5.67;;
2638;SDS011;1329;51.384;7.122;2023-02-28T01:34:03;5.83;;;5.30;;
2638;SDS011;1329;51.384;7.122;2023-02-28T01:36:41;6.53;;;5.93;;
2638;SDS011;1329;51.384;7.122;2023-02-28T01:39:23;6.27;;;5.50;;
2638;SDS011;1329;51.384;7.122;2023-02-28T01:42:00;6.50;;;5.67;;
2638;SDS011;1329;51.384;7.122;2023-02-28T01:47:48;6.03;;;5.43;;
2638;SDS011;1329;51.384;7.122;2023-02-28T01:50:24;5.87;;;5.27;;
2638;SDS011;1329;51.384;7.122;2023-02-28T01:52:55;8.93;;;5.97;;
2638;SDS011;1329;51.384;7.122;2023-02-28T01:55:27;7.07;;;6.37;;
2638;SDS011;1329;51.384;7.122;2023-02-28T01:58:10;7.00;;;5.03;;
2638;SDS011;1329;51.384;7.122;2023-02-28T02:00:39;6.40;;;5.53;;
2638;SDS011;1329;51.384;7.122;2023-02-28T02:03:09;5.97;;;5.37;;
2638;SDS011;1329;51.384;7.122;2023-02-28T02:05:42;6.10;;;5.50;;
2638;SDS011;1329;51.384;7.122;2023-02-28T02:08:13;6.07;;;5.40;;
2638;SDS011;1329;51.384;7.122;2023-02-28T02:10:46;5.83;;;5.23;;
2638;SDS011;1329;51.384;7.122;2023-02-28T02:13:28;6.23;;;5.43;;
2638;SDS011;1329;51.384;7.122;2023-02-28T02:16:33;6.17;;;5.53;;
2638;SDS011;1329;51.384;7.122;2023-02-28T02:19:27;6.07;;;5.47;;
2638;SDS011;1329;51.384;7.122;2023-02-28T02:22:44;6.33;;;5.73;;
2638;SDS011;1329;51.384;7.122;2023-02-28T02:26:14;6.10;;;5.30;;
2638;SDS011;1329;51.384;7.122;2023-02-28T02:29:46;6.57;;;5.37;;
2638;SDS011;1329;51.384;7.122;2023-02-28T02:35:35;5.37;;;4.87;;
2638;SDS011;1329;51.384;7.122;2023-02-28T02:38:10;5.43;;;4.93;;
2638;SDS011;1329;51.384;7.122;2023-02-28T02:40:46;6.20;;;5.60;;
2638;SDS011;1329;51.384;7.122;2023-02-28T02:43:25;5.80;;;5.30;;
2638;SDS011;1329;51.384;7.122;2023-02-28T02:46:06;6.23;;;5.27;;
2638;SDS011;1329;51.384;7.122;2023-02-28T02:48:39;5.60;;;4.70;;
2638;SDS011;1329;51.384;7.122;2023-02-28T02:51:14;5.33;;;4.83;;
2638;SDS011;1329;51.384;7.122;2023-02-28T02:53:45;5.50;;;4.53;;
2638;SDS011;1329;51.384;7.122;2023-02-28T02:56:20;7.87;;;5.00;;
2638;SDS011;1329;51.384;7.122;2023-02-28T02:58:54;4.93;;;4.43;;
2638;SDS011;1329;51.384;7.122;2023-02-28T03:01:31;5.43;;;4.77;;
2638;SDS011;1329;51.384;7.122;2023-02-28T03:04:07;6.03;;;4.83;;
2638;SDS011;1329;51.384;7.122;2023-02-28T03:06:38;5.03;;;4.53;;
2638;SDS011;1329;51.384;7.122;2023-02-28T03:09:06;5.67;;;4.40;;
2638;SDS011;1329;51.384;7.122;2023-02-28T03:11:34;4.80;;;4.37;;
2638;SDS011;1329;51.384;7.122;2023-02-28T03:20:03;4.40;;;4.00;;
2638;SDS011;1329;51.384;7.122;2023-02-28T03:22:47;4.83;;;4.33;;
2638;SDS011;1329;51.384;7.122;2023-02-28T03:25:29;4.67;;;4.20;;
2638;SDS011;1329;51.384;7.122;2023-02-28T03:28:08;5.17;;;4.47;;
2638;SDS011;1329;51.384;7.122;2023-02-28T03:30:48;5.30;;;4.03;;
2638;SDS011;1329;51.384;7.122;2023-02-28T03:33:22;5.23;;;4.73;;
2638;SDS011;1329;51.384;7.122;2023-02-28T03:35:55;5.43;;;4.90;;
2638;SDS011;1329;51.384;7.122;2023-02-28T03:38:31;5.73;;;4.37;;
2638;SDS011;1329;51.384;7.122;2023-02-28T03:41:05;5.30;;;4.80;;
2638;SDS011;1329;51.384;7.122;2023-02-28T03:43:40;4.97;;;4.20;;
2638;SDS011;1329;51.384;7.122;2023-02-28T03:46:13;4.80;;;4.30;;
2638;SDS011;1329;51.384;7.122;2023-02-28T03:48:48;5.70;;;5.10;;
2638;SDS011;1329;51.384;7.122;2023-02-28T03:51:21;5.30;;;4.80;;
2638;SDS011;1329;51.384;7.122;2023-02-28T03:53:52;6.00;;;4.73;;
2638;SDS011;1329;51.384;7.122;2023-02-28T03:56:24;6.03;;;5.23;;
2638;SDS011;1329;51.384;7.122;2023-02-28T03:58:58;6.13;;;4.57;;
2638;SDS011;1329;51.384;7.122;2023-02-28T04:01:30;6.63;;;4.90;;
2638;SDS011;1329;51.384;7.122;2023-02-28T04:04:02;5.53;;;4.40;;
2638;SDS011;1329;51.384;7.122;2023-02-28T04:06:33;6.30;;;4.90;;
2638;SDS011;1329;51.384;7.122;2023-02-28T04:09:02;6.10;;;4.97;;
2638;SDS011;1329;51.384;7.122;2023-02-28T04:11:32;5.10;;;4.60;;
2638;SDS011;1329;51.384;7.122;2023-02-28T04:14:02;5.60;;;4.93;;
2638;SDS011;1329;51.384;7.122;2023-02-28T04:16:31;5.20;;;4.70;;
2638;SDS011;1329;51.384;7.122;2023-02-28T04:19:03;5.50;;;4.90;;
2638;SDS011;1329;51.384;7.122;2023-02-28T04:21:32;6.40;;;4.83;;
2638;SDS011;1329;51.384;7.122;2023-02-28T04:24:03;6.00;;;4.47;;
2638;SDS011;1329;51.384;7.122;2023-02-28T04:26:33;5.30;;;4.80;;
2638;SDS011;1329;51.384;7.122;2023-02-28T04:29:03;5.40;;;4.50;;
2638;SDS011;1329;51.384;7.122;2023-02-28T04:31:34;6.27;;;5.30;;
2638;SDS011;1329;51.384;7.122;2023-02-28T04:34:02;4.87;;;4.40;;
2638;SDS011;1329;51.384;7.122;2023-02-28T04:36:30;5.20;;;4.70;;
2638;SDS011;1329;51.384;7.122;2023-02-28T04:38:57;6.47;;;4.90;;
2638;SDS011;1329;51.384;7.122;2023-02-28T04:41:26;5.30;;;4.80;;
2638;SDS011;1329;51.384;7.122;2023-02-28T04:43:53;6.03;;;4.60;;
2638;SDS011;1329;51.384;7.122;2023-02-28T04:46:21;4.83;;;4.33;;
2638;SDS011;1329;51.384;7.122;2023-02-28T04:48:48;6.10;;;4.83;;
2638;SDS011;1329;51.384;7.122;2023-02-28T04:51:17;5.43;;;4.90;;
2638;SDS011;1329;51.384;7.122;2023-02-28T04:53:45;4.73;;;4.27;;
2638;SDS011;1329;51.384;7.122;2023-02-28T04:56:14;6.27;;;4.67;;
2638;SDS011;1329;51.384;7.122;2023-02-28T04:58:45;6.37;;;5.13;;
2638;SDS011;1329;51.384;7.122;2023-02-28T05:01:19;6.60;;;4.60;;
2638;SDS011;1329;51.384;7.122;2023-02-28T05:03:50;5.73;;;5.00;;
2638;SDS011;1329;51.384;7.122;2023-02-28T05:06:19;6.33;;;4.77;;
2638;SDS011;1329;51.384;7.122;2023-02-28T05:08:48;6.00;;;4.83;;
2638;SDS011;1329;51.384;7.122;2023-02-28T05:11:17;5.63;;;5.13;;
2638;SDS011;1329;51.384;7.122;2023-02-28T05:13:47;6.17;;;4.80;;
2638;SDS011;1329;51.384;7.122;2023-02-28T05:16:19;5.47;;;4.90;;
2638;SDS011;1329;51.384;7.122;2023-02-28T05:18:46;4.97;;;4.40;;
2638;SDS011;1329;51.384;7.122;2023-02-28T05:21:22;5.83;;;4.40;;
2638;SDS011;1329;51.384;7.122;2023-02-28T05:23:55;5.57;;;5.07;;
2638;SDS011;1329;51.384;7.122;2023-02-28T05:26:23;5.53;;;4.93;;
2638;SDS011;1329;51.384;7.122;2023-02-28T05:28:53;4.97;;;4.47;;
2638;SDS011;1329;51.384;7.122;2023-02-28T05:31:23;5.63;;;4.90;;
2638;SDS011;1329;51.384;7.122;2023-02-28T05:33:50;6.00;;;5.20;;
2638;SDS011;1329;51.384;7.122;2023-02-28T05:36:18;8.10;;;5.00;;
2638;SDS011;1329;51.384;7.122;2023-02-28T05:38:46;6.10;;;5.00;;
2638;SDS011;1329;51.384;7.122;2023-02-28T05:41:14;5.80;;;5.20;;
2638;SDS011;1329;51.384;7.122;2023-02-28T05:43:45;5.63;;;4.70;;
2638;SDS011;1329;51.384;7.122;2023-02-28T05:46:16;7.97;;;5.53;;
2638;SDS011;1329;51.384;7.122;2023-02-28T05:48:45;5.33;;;4.83;;
2638;SDS011;1329;51.384;7.122;2023-02-28T05:51:13;7.27;;;5.07;;
2638;SDS011;1329;51.384;7.122;2023-02-28T05:53:41;7.03;;;5.87;;
2638;SDS011;1329;51.384;7.122;2023-02-28T05:56:09;7.63;;;5.27;;
2638;SDS011;1329;51.384;7.122;2023-02-28T05:58:36;8.40;;;5.83;;
2638;SDS011;1329;51.384;7.122;2023-02-28T06:03:50;10.63;;;5.63;;
2638;SDS011;1329;51.384;7.122;2023-02-28T06:06:17;7.20;;;5.80;;
2638;SDS011;1329;51.384;7.122;2023-02-28T06:08:47;8.10;;;5.43;;
2638;SDS011;1329;51.384;7.122;2023-02-28T06:11:17;7.40;;;5.43;;
2638;SDS011;1329;51.384;7.122;2023-02-28T06:13:44;5.93;;;5.20;;
2638;SDS011;1329;51.384;7.122;2023-02-28T06:16:12;6.20;;;5.33;;
2638;SDS011;1329;51.384;7.122;2023-02-28T06:18:40;6.97;;;5.87;;
2638;SDS011;1329;51.384;7.122;2023-02-28T06:21:07;7.27;;;5.60;;
2638;SDS011;1329;51.384;7.122;2023-02-28T06:23:34;8.20;;;5.97;;
2638;SDS011;1329;51.384;7.122;2023-02-28T06:26:01;7.03;;;5.83;;
2638;SDS011;1329;51.384;7.122;2023-02-28T06:28:29;6.13;;;5.53;;
2638;SDS011;1329;51.384;7.122;2023-02-28T06:30:56;9.97;;;8.13;;
2638;SDS011;1329;51.384;7.122;2023-02-28T06:33:23;9.57;;;6.87;;
2638;SDS011;1329;51.384;7.122;2023-02-28T06:35:52;8.97;;;6.90;;
2638;SDS011;1329;51.384;7.122;2023-02-28T06:38:20;7.90;;;7.03;;
2638;SDS011;1329;51.384;7.122;2023-02-28T06:40:52;7.57;;;6.27;;
2638;SDS011;1329;51.384;7.122;2023-02-28T06:43:20;9.03;;;5.87;;
2638;SDS011;1329;51.384;7.122;2023-02-28T06:45:47;7.27;;;6.53;;
2638;SDS011;1329;51.384;7.122;2023-02-28T06:48:14;7.43;;;6.37;;
2638;SDS011;1329;51.384;7.122;2023-02-28T06:50:41;7.27;;;6.03;;
2638;SDS011;1329;51.384;7.122;2023-02-28T06:53:09;6.80;;;6.10;;
2638;SDS011;1329;51.384;7.122;2023-02-28T06:55:38;8.17;;;6.23;;
2638;SDS011;1329;51.384;7.122;2023-02-28T06:58:05;7.70;;;6.57;;
2638;SDS011;1329;51.384;7.122;2023-02-28T07:00:39;7.57;;;6.33;;
2638;SDS011;1329;51.384;7.122;2023-02-28T07:03:07;6.23;;;5.63;;
2638;SDS011;1329;51.384;7.122;2023-02-28T07:05:34;7.20;;;6.17;;
2638;SDS011;1329;51.384;7.122;2023-02-28T07:08:01;6.43;;;5.67;;
2638;SDS011;1329;51.384;7.122;2023-02-28T07:10:30;7.57;;;6.40;;
2638;SDS011;1329;51.384;7.122;2023-02-28T07:12:58;7.93;;;5.93;;
2638;SDS011;1329;51.384;7.122;2023-02-28T07:15:25;6.97;;;5.80;;
2638;SDS011;1329;51.384;7.122;2023-02-28T07:17:52;8.07;;;5.90;;
2638;SDS011;1329;51.384;7.122;2023-02-28T07:20:19;7.00;;;5.60;;
2638;SDS011;1329;51.384;7.122;2023-02-28T07:22:48;6.00;;;5.40;;
2638;SDS011;1329;51.384;7.122;2023-02-28T07:25:21;6.03;;;5.13;;
2638;SDS011;1329;51.384;7.122;2023-02-28T07:27:49;7.47;;;5.37;;
2638;SDS011;1329;51.384;7.122;2023-02-28T07:30:17;6.47;;;5.27;;
2638;SDS011;1329;51.384;7.122;2023-02-28T07:32:44;7.40;;;6.03;;
2638;SDS011;1329;51.384;7.122;2023-02-28T07:35:11;7.57;;;6.00;;
2638;SDS011;1329;51.384;7.122;2023-02-28T07:37:40;6.37;;;5.60;;
2638;SDS011;1329;51.384;7.122;2023-02-28T07:40:08;6.27;;;5.67;;
2638;SDS011;1329;51.384;7.122;2023-02-28T07:42:38;5.43;;;4.93;;
2638;SDS011;1329;51.384;7.122;2023-02-28T07:45:09;6.27;;;5.00;;
2638;SDS011;1329;51.384;7.122;2023-02-28T07:47:38;6.40;;;5.17;;
2638;SDS011;1329;51.384;7.122;2023-02-28T07:50:05;5.67;;;5.00;;
2638;SDS011;1329;51.384;7.122;2023-02-28T07:52:35;5.20;;;4.70;;
2638;SDS011;1329;51.384;7.122;2023-02-28T07:55:04;6.07;;;4.80;;
2638;SDS011;1329;51.384;7.122;2023-02-28T07:57:32;5.93;;;4.93;;
2638;SDS011;1329;51.384;7.122;2023-02-28T07:59:59;5.77;;;5.17;;
2638;SDS011;1329;51.384;7.122;2023-02-28T08:02:28;6.70;;;5.40;;
2638;SDS011;1329;51.384;7.122;2023-02-28T08:04:55;6.13;;;5.57;;
2638;SDS011;1329;51.384;7.122;2023-02-28T08:07:22;6.37;;;5.77;;
2638;SDS011;1329;51.384;7.122;2023-02-28T08:09:50;5.90;;;5.40;;
2638;SDS011;1329;51.384;7.122;2023-02-28T08:12:21;7.97;;;5.93;;
2638;SDS011;1329;51.384;7.122;2023-02-28T08:14:49;8.53;;;5.77;;
2638;SDS011;1329;51.384;7.122;2023-02-28T08:17:16;6.00;;;5.40;;
2638;SDS011;1329;51.384;7.122;2023-02-28T08:19:47;6.50;;;5.70;;
2638;SDS011;1329;51.384;7.122;2023-02-28T08:22:15;6.23;;;5.63;;
2638;SDS011;1329;51.384;7.122;2023-02-28T08:24:42;6.47;;;5.87;;
2638;SDS011;1329;51.384;7.122;2023-02-28T08:27:09;6.17;;;5.30;;
2638;SDS011;1329;51.384;7.122;2023-02-28T08:29:39;6.63;;;5.00;;
2638;SDS011;1329;51.384;7.122;2023-02-28T08:32:09;5.27;;;4.87;;
2638;SDS011;1329;51.384;7.122;2023-02-28T08:34:38;5.57;;;4.97;;
2638;SDS011;1329;51.384;7.122;2023-02-28T08:37:14;5.73;;;5.23;;
2638;SDS011;1329;51.384;7.122;2023-02-28T08:39:41;5.90;;;5.30;;
2638;SDS011;1329;51.384;7.122;2023-02-28T08:42:08;5.70;;;5.20;;
2638;SDS011;1329;51.384;7.122;2023-02-28T08:44:38;5.20;;;4.70;;
2638;SDS011;1329;51.384;7.122;2023-02-28T08:47:08;5.27;;;4.70;;
2638;SDS011;1329;51.384;7.122;2023-02-28T08:49:36;5.80;;;5.03;;
2638;SDS011;1329;51.384;7.122;2023-02-28T08:52:03;5.50;;;5.00;;
2638;SDS011;1329;51.384;7.122;2023-02-28T08:54:34;6.13;;;4.90;;
2638;SDS011;1329;51.384;7.122;2023-02-28T08:57:05;5.93;;;5.33;;
2638;SDS011;1329;51.384;7.122;2023-02-28T08:59:32;5.27;;;4.80;;
2638;SDS011;1329;51.384;7.122;2023-02-28T09:01:59;5.70;;;5.20;;
2638;SDS011;1329;51.384;7.122;2023-02-28T09:04:26;5.07;;;4.47;;
2638;SDS011;1329;51.384;7.122;2023-02-28T09:06:55;5.33;;;4.60;;
2638;SDS011;1329;51.384;7.122;2023-02-28T09:09:22;5.23;;;4.73;;
2638;SDS011;1329;51.384;7.122;2023-02-28T09:11:53;4.80;;;4.40;;
2638;SDS011;1329;51.384;7.122;2023-02-28T09:14:21;5.57;;;5.07;;
2638;SDS011;1329;51.384;7.122;2023-02-28T09:16:48;6.00;;;5.40;;
2638;SDS011;1329;51.384;7.122;2023-02-28T09:19:16;5.77;;;5.20;;
2638;SDS011;1329;51.384;7.122;2023-02-28T09:21:43;5.90;;;5.10;;
2638;SDS011;1329;51.384;7.122;2023-02-28T09:24:13;5.13;;;4.50;;
2638;SDS011;1329;51.384;7.122;2023-02-28T09:26:43;5.20;;;4.70;;
2638;SDS011;1329;51.384;7.122;2023-02-28T09:29:14;4.83;;;4.43;;
2638;SDS011;1329;51.384;7.122;2023-02-28T09:31:42;5.93;;;4.77;;
2638;SDS011;1329;51.384;7.122;2023-02-28T09:34:10;5.27;;;4.60;;
2638;SDS011;1329;51.384;7.122;2023-02-28T09:36:45;5.30;;;4.80;;
2638;SDS011;1329;51.384;7.122;2023-02-28T09:39:12;4.97;;;4.43;;
2638;SDS011;1329;51.384;7.122;2023-02-28T09:41:41;5.43;;;4.60;;
2638;SDS011;1329;51.384;7.122;2023-02-28T09:44:15;5.07;;;4.57;;
2638;SDS011;1329;51.384;7.122;2023-02-28T09:46:49;4.83;;;4.23;;
2638;SDS011;1329;51.384;7.122;2023-02-28T09:49:22;4.90;;;4.00;;
2638;SDS011;1329;51.384;7.122;2023-02-28T09:51:56;4.90;;;4.50;;
2638;SDS011;1329;51.384;7.122;2023-02-28T09:54:32;4.97;;;4.47;;
2638;SDS011;1329;51.384;7.122;2023-02-28T09:57:00;4.50;;;4.10;;
2638;SDS011;1329;51.384;7.122;2023-02-28T09:59:38;4.73;;;4.33;;
2638;SDS011;1329;51.384;7.122;2023-02-28T10:02:18;4.90;;;4.40;;
2638;SDS011;1329;51.384;7.122;2023-02-28T10:05:05;4.50;;;4.10;;
2638;SDS011;1329;51.384;7.122;2023-02-28T10:07:43;5.57;;;4.40;;
2638;SDS011;1329;51.384;7.122;2023-02-28T10:10:26;4.50;;;4.10;;
2638;SDS011;1329;51.384;7.122;2023-02-28T10:12:57;4.17;;;3.87;;
2638;SDS011;1329;51.384;7.122;2023-02-28T10:15:31;4.40;;;4.00;;
2638;SDS011;1329;51.384;7.122;2023-02-28T10:18:02;4.53;;;3.93;;
2638;SDS011;1329;51.384;7.122;2023-02-28T10:20:33;4.80;;;4.20;;
2638;SDS011;1329;51.384;7.122;2023-02-28T10:23:04;4.87;;;4.40;;
2638;SDS011;1329;51.384;7.122;2023-02-28T10:25:39;4.53;;;4.13;;
2638;SDS011;1329;51.384;7.122;2023-02-28T10:28:13;5.43;;;4.00;;
2638;SDS011;1329;51.384;7.122;2023-02-28T10:30:44;4.20;;;3.80;;
2638;SDS011;1329;51.384;7.122;2023-02-28T10:33:21;4.40;;;3.50;;
2638;SDS011;1329;51.384;7.122;2023-02-28T10:35:51;4.20;;;3.80;;
2638;SDS011;1329;51.384;7.122;2023-02-28T10:38:23;4.23;;;3.90;;
2638;SDS011;1329;51.384;7.122;2023-02-28T10:40:53;4.10;;;3.80;;
2638;SDS011;1329;51.384;7.122;2023-02-28T10:43:32;3.50;;;3.20;;
2638;SDS011;1329;51.384;7.122;2023-02-28T10:46:09;4.10;;;3.30;;
2638;SDS011;1329;51.384;7.122;2023-02-28T10:49:01;4.40;;;3.60;;
2638;SDS011;1329;51.384;7.122;2023-02-28T10:51:36;3.90;;;3.20;;
2638;SDS011;1329;51.384;7.122;2023-02-28T10:54:06;3.80;;;3.20;;
2638;SDS011;1329;51.384;7.122;2023-02-28T10:56:42;3.60;;;3.30;;
2638;SDS011;1329;51.384;7.122;2023-02-28T10:59:26;3.27;;;3.00;;
2638;SDS011;1329;51.384;7.122;2023-02-28T11:01:57;3.33;;;3.03;;
2638;SDS011;1329;51.384;7.122;2023-02-28T11:04:37;3.23;;;2.87;;
2638;SDS011;1329;51.384;7.122;2023-02-28T11:07:06;3.13;;;2.83;;
2638;SDS011;1329;51.384;7.122;2023-02-28T11:09:47;2.70;;;2.50;;
2638;SDS011;1329;51.384;7.122;2023-02-28T11:12:20;2.73;;;2.53;;
2638;SDS011;1329;51.384;7.122;2023-02-28T11:14:51;2.80;;;2.60;;
2638;SDS011;1329;51.384;7.122;2023-02-28T11:17:25;3.63;;;2.90;;
2638;SDS011;1329;51.384;7.122;2023-02-28T11:19:56;3.40;;;3.10;;
2638;SDS011;1329;51.384;7.122;2023-02-28T11:22:28;3.33;;;2.97;;
2638;SDS011;1329;51.384;7.122;2023-02-28T11:25:01;3.40;;;3.03;;
2638;SDS011;1329;51.384;7.122;2023-02-28T11:27:40;3.00;;;2.80;;
2638;SDS011;1329;51.384;7.122;2023-02-28T11:30:27;4.13;;;3.10;;
2638;SDS011;1329;51.384;7.122;2023-02-28T11:35:52;2.97;;;2.73;;
2638;SDS011;1329;51.384;7.122;2023-02-28T11:38:26;2.83;;;2.63;;
2638;SDS011;1329;51.384;7.122;2023-02-28T11:41:02;3.40;;;3.10;;
2638;SDS011;1329;51.384;7.122;2023-02-28T11:43:55;3.27;;;3.00;;
2638;SDS011;1329;51.384;7.122;2023-02-28T11:46:37;3.10;;;2.73;;
2638;SDS011;1329;51.384;7.122;2023-02-28T11:49:19;3.40;;;3.10;;
2638;SDS011;1329;51.384;7.122;2023-02-28T11:52:01;2.90;;;2.70;;
2638;SDS011;1329;51.384;7.122;2023-02-28T11:54:57;3.10;;;2.90;;
2638;SDS011;1329;51.384;7.122;2023-02-28T11:57:38;3.50;;;3.20;;
2638;SDS011;1329;51.384;7.122;2023-02-28T12:00:36;3.00;;;2.80;;
2638;SDS011;1329;51.384;7.122;2023-02-28T12:03:35;2.87;;;2.67;;
2638;SDS011;1329;51.384;7.122;2023-02-28T12:06:18;3.20;;;2.90;;
2638;SDS011;1329;51.384;7.122;2023-02-28T12:08:56;3.13;;;2.90;;
2638;SDS011;1329;51.384;7.122;2023-02-28T12:11:39;3.50;;;3.03;;
2638;SDS011;1329;51.384;7.122;2023-02-28T12:14:28;3.27;;;2.97;;
2638;SDS011;1329;51.384;7.122;2023-02-28T12:17:19;3.23;;;2.93;;
2638;SDS011;1329;51.384;7.122;2023-02-28T12:20:05;3.23;;;2.93;;
2638;SDS011;1329;51.384;7.122;2023-02-28T12:22:47;3.37;;;3.07;;
2638;SDS011;1329;51.384;7.122;2023-02-28T12:25:36;4.90;;;3.40;;
2638;SDS011;1329;51.384;7.122;2023-02-28T12:28:21;3.70;;;3.37;;
2638;SDS011;1329;51.384;7.122;2023-02-28T12:30:56;5.33;;;3.50;;
2638;SDS011;1329;51.384;7.122;2023-02-28T12:33:31;4.03;;;3.40;;
2638;SDS011;1329;51.384;7.122;2023-02-28T12:36:03;4.27;;;3.87;;
2638;SDS011;1329;51.384;7.122;2023-02-28T12:38:39;3.60;;;3.30;;
2638;SDS011;1329;51.384;7.122;2023-02-28T12:41:13;3.40;;;3.10;;
2638;SDS011;1329;51.384;7.122;2023-02-28T12:43:47;3.60;;;3.30;;
2638;SDS011;1329;51.384;7.122;2023-02-28T12:46:29;4.00;;;3.60;;
2638;SDS011;1329;51.384;7.122;2023-02-28T12:49:04;3.87;;;3.57;;
2638;SDS011;1329;51.384;7.122;2023-02-28T12:51:37;3.53;;;3.23;;
2638;SDS011;1329;51.384;7.122;2023-02-28T12:54:10;3.73;;;3.30;;
2638;SDS011;1329;51.384;7.122;2023-02-28T12:56:53;3.80;;;3.50;;
2638;SDS011;1329;51.384;7.122;2023-02-28T12:59:30;4.03;;;3.63;;
2638;SDS011;1329;51.384;7.122;2023-02-28T13:05:37;3.67;;;3.27;;
2638;SDS011;1329;51.384;7.122;2023-02-28T13:11:41;4.00;;;3.60;;
2638;SDS011;1329;51.384;7.122;2023-02-28T13:14:19;4.87;;;3.50;;
2638;SDS011;1329;51.384;7.122;2023-02-28T13:16:53;3.57;;;3.27;;
2638;SDS011;1329;51.384;7.122;2023-02-28T13:19:29;4.00;;;3.60;;
2638;SDS011;1329;51.384;7.122;2023-02-28T13:21:58;4.60;;;4.20;;
2638;SDS011;1329;51.384;7.122;2023-02-28T13:24:39;4.10;;;3.80;;
2638;SDS011;1329;51.384;7.122;2023-02-28T13:27:20;4.03;;;3.73;;
2638;SDS011;1329;51.384;7.122;2023-02-28T13:30:03;4.03;;;3.70;;
2638;SDS011;1329;51.384;7.122;2023-02-28T13:33:33;4.80;;;3.87;;
2638;SDS011;1329;51.384;7.122;2023-02-28T13:36:19;4.93;;;4.17;;
2638;SDS011;1329;51.384;7.122;2023-02-28T13:38:54;3.87;;;3.57;;
2638;SDS011;1329;51.384;7.122;2023-02-28T13:41:46;4.10;;;3.80;;
2638;SDS011;1329;51.384;7.122;2023-02-28T13:44:15;4.43;;;4.03;;
2638;SDS011;1329;51.384;7.122;2023-02-28T13:50:07;4.50;;;4.10;;
2638;SDS011;1329;51.384;7.122;2023-02-28T13:52:53;4.00;;;3.70;;
2638;SDS011;1329;51.384;7.122;2023-02-28T13:56:03;4.57;;;3.93;;
2638;SDS011;1329;51.384;7.122;2023-02-28T13:58:46;4.97;;;4.57;;
2638;SDS011;1329;51.384;7.122;2023-02-28T14:01:23;4.20;;;3.80;;
2638;SDS011;1329;51.384;7.122;2023-02-28T14:04:21;4.77;;;4.37;;
2638;SDS011;1329;51.384;7.122;2023-02-28T14:07:26;4.60;;;4.20;;
2638;SDS011;1329;51.384;7.122;2023-02-28T14:10:05;4.40;;;4.07;;
2638;SDS011;1329;51.384;7.122;2023-02-28T14:12:55;4.73;;;4.33;;
2638;SDS011;1329;51.384;7.122;2023-02-28T14:16:02;5.00;;;4.40;;
2638;SDS011;1329;51.384;7.122;2023-02-28T14:18:37;5.13;;;4.70;;
2638;SDS011;1329;51.384;7.122;2023-02-28T14:21:21;4.83;;;4.40;;
2638;SDS011;1329;51.384;7.122;2023-02-28T14:27:20;4.40;;;3.90;;
2638;SDS011;1329;51.384;7.122;2023-02-28T14:30:07;5.00;;;4.53;;
2638;SDS011;1329;51.384;7.122;2023-02-28T14:33:23;6.00;;;5.43;;
2638;SDS011;1329;51.384;7.122;2023-02-28T14:36:25;5.10;;;4.70;;
2638;SDS011;1329;51.384;7.122;2023-02-28T14:38:59;4.63;;;4.33;;
2638;SDS011;1329;51.384;7.122;2023-02-28T14:41:31;4.87;;;4.37;;
2638;SDS011;1329;51.384;7.122;2023-02-28T14:44:13;4.63;;;4.17;;
2638;SDS011;1329;51.384;7.122;2023-02-28T14:46:48;4.70;;;4.30;;
2638;SDS011;1329;51.384;7.122;2023-02-28T14:49:29;4.63;;;4.23;;
2638;SDS011;1329;51.384;7.122;2023-02-28T14:52:05;4.63;;;4.23;;
2638;SDS011;1329;51.384;7.122;2023-02-28T14:54:40;4.63;;;4.20;;
2638;SDS011;1329;51.384;7.122;2023-02-28T14:57:19;4.70;;;4.10;;
2638;SDS011;1329;51.384;7.122;2023-02-28T14:59:57;4.87;;;4.37;;
2638;SDS011;1329;51.384;7.122;2023-02-28T15:02:30;5.63;;;4.97;;
2638;SDS011;1329;51.384;7.122;2023-02-28T15:05:14;5.37;;;4.93;;
2638;SDS011;1329;51.384;7.122;2023-02-28T15:08:06;5.23;;;4.83;;
2638;SDS011;1329;51.384;7.122;2023-02-28T15:10:39;5.00;;;4.60;;
2638;SDS011;1329;51.384;7.122;2023-02-28T15:13:11;5.33;;;4.93;;
2638;SDS011;1329;51.384;7.122;2023-02-28T15:15:44;5.50;;;5.10;;
2638;SDS011;1329;51.384;7.122;2023-02-28T15:18:22;5.37;;;4.87;;
2638;SDS011;1329;51.384;7.122;2023-02-28T15:21:00;5.10;;;4.70;;
2638;SDS011;1329;51.384;7.122;2023-02-28T15:23:43;5.73;;;4.53;;
2638;SDS011;1329;51.384;7.122;2023-02-28T15:26:20;4.97;;;4.57;;
2638;SDS011;1329;51.384;7.122;2023-02-28T15:28:57;4.80;;;4.40;;
2638;SDS011;1329;51.384;7.122;2023-02-28T15:31:43;5.73;;;5.10;;
2638;SDS011;1329;51.384;7.122;2023-02-28T15:34:19;5.20;;;4.80;;
2638;SDS011;1329;51.384;7.122;2023-02-28T15:36:49;5.53;;;5.07;;
2638;SDS011;1329;51.384;7.122;2023-02-28T15:39:20;5.53;;;5.07;;
2638;SDS011;1329;51.384;7.122;2023-02-28T15:41:52;5.40;;;4.90;;
2638;SDS011;1329;51.384;7.122;2023-02-28T15:44:37;5.33;;;4.83;;
2638;SDS011;1329;51.384;7.122;2023-02-28T15:47:14;5.60;;;5.10;;
2638;SDS011;1329;51.384;7.122;2023-02-28T15:49:49;5.63;;;5.13;;
2638;SDS011;1329;51.384;7.122;2023-02-28T15:52:22;5.00;;;4.47;;
2638;SDS011;1329;51.384;7.122;2023-02-28T15:55:06;5.13;;;4.57;;
2638;SDS011;1329;51.384;7.122;2023-02-28T15:57:38;6.57;;;5.00;;
2638;SDS011;1329;51.384;7.122;2023-02-28T16:00:12;5.13;;;4.73;;
2638;SDS011;1329;51.384;7.122;2023-02-28T16:02:48;5.37;;;4.90;;
2638;SDS011;1329;51.384;7.122;2023-02-28T16:05:23;5.57;;;5.07;;
2638;SDS011;1329;51.384;7.122;2023-02-28T16:07:59;5.30;;;4.80;;
2638;SDS011;1329;51.384;7.122;2023-02-28T16:10:43;4.80;;;4.33;;
2638;SDS011;1329;51.384;7.122;2023-02-28T16:13:10;5.33;;;4.83;;
2638;SDS011;1329;51.384;7.122;2023-02-28T16:15:43;5.13;;;4.70;;
2638;SDS011;1329;51.384;7.122;2023-02-28T16:18:11;5.13;;;4.63;;
2638;SDS011;1329;51.384;7.122;2023-02-28T16:20:38;5.30;;;4.77;;
2638;SDS011;1329;51.384;7.122;2023-02-28T16:23:06;5.60;;;4.83;;
2638;SDS011;1329;51.384;7.122;2023-02-28T16:25:34;5.63;;;5.07;;
2638;SDS011;1329;51.384;7.122;2023-02-28T16:28:05;5.23;;;4.77;;
2638;SDS011;1329;51.384;7.122;2023-02-28T16:30:41;5.20;;;4.70;;